Simenta De Carvalho — CSYU3 — position and weather

sailwx.info

Track history (hours):
 
Tides and Currents Weather Stations Pressure Air Temp Water Temp Dewpoint Dewpoint Depression Visibility Wind Speed Wind Dir Waves Ship Positions

Simenta De Carvalho

Last reported at 2018-Feb-19 19:21 UTC. Time now 2018-Feb-19 22:05 UTC.
Position N 37°57' W 008°52'.

Length 12 m.

Type: Pilot. MMSI: 263673856.

Date/timePositionNaut miles runAvg speedWind from/ knotsBaromVisibWave heightAir tempDewpointWater temp
2018-Feb-19 19:21N 37°57' W 008°52'1 2.8
2018-Feb-19 18:58N 37°56' W 008°51'0 0.1
2018-Feb-19 18:30N 37°56' W 008°51'1 0.1
2018-Feb-19 10:16N 37°57' W 008°52'312.4
2018-Feb-19 10:01N 37°54' W 008°50'4 7.0
2018-Feb-19 09:29N 37°57' W 008°52'1 3.0
2018-Feb-19 09:00N 37°56' W 008°52'1 1.2
2018-Feb-19 08:30N 37°56' W 008°51'1 0.9
2018-Feb-19 07:19N 37°57' W 008°52'413.1
2018-Feb-19 07:00N 37°53' W 008°51'4 1.6
2018-Feb-19 04:24N 37°57' W 008°52'2 4.1
2018-Feb-19 04:00N 37°55' W 008°51'3 5.3
2018-Feb-19 03:30N 37°57' W 008°53'1 0.2
2018-Feb-18 21:25N 37°57' W 008°52'2 4.5
2018-Feb-18 21:00N 37°55' W 008°53'2 3.2
2018-Feb-18 20:30N 37°57' W 008°53'1 0.6
2018-Feb-18 18:30N 37°57' W 008°52'1 2.5
2018-Feb-18 17:59N 37°56' W 008°51'2 4.2
2018-Feb-18 17:30N 37°57' W 008°53'0 0.1
2018-Feb-18 17:00N 37°57' W 008°53'1 1.9
2018-Feb-18 16:29N 37°57' W 008°52'0 0.0
2018-Feb-18 16:00N 37°57' W 008°52'1 2.6
2018-Feb-18 15:30N 37°56' W 008°51'1 0.2
2018-Feb-18 09:26N 37°57' W 008°52'1 2.5
2018-Feb-18 09:00N 37°56' W 008°52'0 0.8
2018-Feb-18 08:30N 37°56' W 008°51'1 1.3
2018-Feb-18 07:42N 37°57' W 008°52'314.1
2018-Feb-18 07:30N 37°54' W 008°51'2 4.1
2018-Feb-18 06:59N 37°54' W 008°53'3 1.1
2018-Feb-18 04:12N 37°57' W 008°52'2 9.6
2018-Feb-18 04:00N 37°55' W 008°53'2 3.5
2018-Feb-18 03:28N 37°57' W 008°52'0 0.0
2018-Feb-18 02:59N 37°57' W 008°52'1 2.8
2018-Feb-18 02:30N 37°56' W 008°51'0 0.4
2018-Feb-18 01:58N 37°56' W 008°51'2 4.9
2018-Feb-18 01:30N 37°57' W 008°53'1 0.6
2018-Feb-17 23:31N 37°57' W 008°52'0 0.0
2018-Feb-17 23:30N 37°57' W 008°52'1 2.1
2018-Feb-17 22:58N 37°56' W 008°53'1 0.3
2018-Feb-17 18:48N 37°57' W 008°52'1 4.2
2018-Feb-17 18:30N 37°57' W 008°53'0 0.5
2018-Feb-17 17:59N 37°57' W 008°53'1 2.1
2018-Feb-17 17:30N 37°57' W 008°52'2 3.3
2018-Feb-17 17:00N 37°56' W 008°53'2 3.3
2018-Feb-17 16:29N 37°57' W 008°52'1 2.8
2018-Feb-17 16:01N 37°56' W 008°51'0 0.9
2018-Feb-17 15:28N 37°56' W 008°51'0 0.0
2018-Feb-17 15:01N 37°56' W 008°51'1 1.7
2018-Feb-17 14:30N 37°55' W 008°51'2 0.2
2018-Feb-17 07:47N 37°57' W 008°52'1 4.4
2018-Feb-17 07:29N 37°57' W 008°53'1 0.2
2018-Feb-17 01:54N 37°57' W 008°52'1 3.2
2018-Feb-17 01:30N 37°56' W 008°51'0 0.6
2018-Feb-17 00:59N 37°56' W 008°51'2 3.4
2018-Feb-17 00:30N 37°57' W 008°53'0 0.5
2018-Feb-17 00:00N 37°57' W 008°53'0 0.9
2018-Feb-16 23:30N 37°57' W 008°53'2 3.8
2018-Feb-16 23:00N 37°56' W 008°50'0 0.5
2018-Feb-16 22:29N 37°56' W 008°51'0 0.1
2018-Feb-16 21:59N 37°56' W 008°51'1 2.6
2018-Feb-16 21:29N 37°57' W 008°52'0 0.0
2018-Feb-16 16:32N 37°57' W 008°52'0 0.0
2018-Feb-16 16:30N 37°57' W 008°52'3 5.3
2018-Feb-16 15:59N 37°54' W 008°51'3 5.7
2018-Feb-16 15:30N 37°57' W 008°52'0 0.0
2018-Feb-16 15:00N 37°57' W 008°52'1 1.0
2018-Feb-16 14:30N 37°56' W 008°52'1 2.9
2018-Feb-16 14:00N 37°55' W 008°52'2 3.8
2018-Feb-16 13:30N 37°57' W 008°52'0 0.0
2018-Feb-16 13:00N 37°57' W 008°52'1 2.3
2018-Feb-16 12:30N 37°56' W 008°51'0 0.6
2018-Feb-16 12:00N 37°56' W 008°51'1 1.5
2018-Feb-16 11:28N 37°57' W 008°52'0 0.0
2018-Feb-16 10:58N 37°57' W 008°52'0 0.0
2018-Feb-15 21:18N 37°57' W 008°52'1 3.0
2018-Feb-15 21:00N 37°57' W 008°53'4 7.1
2018-Feb-15 20:30N 37°54' W 008°51'3 5.0
2018-Feb-15 20:00N 37°56' W 008°51'1 0.2
2018-Feb-15 14:51N 37°57' W 008°52'0 1.4
2018-Feb-15 14:30N 37°57' W 008°52'0 0.2
2018-Feb-15 12:00N 37°57' W 008°52'1 0.2
2018-Feb-15 06:47N 37°56' W 008°51'0 0.7
2018-Feb-15 06:25N 37°56' W 008°51'0 0.6
2018-Feb-15 06:00N 37°56' W 008°51'1 2.7
2018-Feb-15 05:30N 37°55' W 008°50'1 2.3
2018-Feb-15 05:00N 37°56' W 008°51'0 0.5
2018-Feb-15 04:30N 37°56' W 008°51'0 0.0
2018-Feb-15 04:00N 37°56' W 008°51'0 0.0
2018-Feb-15 03:30N 37°56' W 008°51'3 5.3
2018-Feb-15 03:00N 37°53' W 008°51'2 4.5
2018-Feb-15 02:29N 37°56' W 008°51'0 0.1
2018-Feb-15 02:00N 37°56' W 008°51'0 0.1
2018-Feb-15 01:29N 37°56' W 008°51'0 0.7
2018-Feb-15 01:00N 37°56' W 008°51'1 1.5
2018-Feb-15 00:30N 37°55' W 008°51'2 4.7
2018-Feb-15 00:00N 37°57' W 008°53'2 4.3
2018-Feb-14 23:27N 37°56' W 008°51'1 0.2
2018-Feb-14 20:48N 37°56' W 008°51'2 5.7
2018-Feb-14 20:30N 37°55' W 008°52'2 3.9
2018-Feb-14 20:00N 37°57' W 008°52'1 2.5
2018-Feb-14 19:30N 37°57' W 008°53'1 2.2
2018-Feb-14 19:00N 37°56' W 008°52'1 0.6
2018-Feb-14 17:11N 37°56' W 008°51'1 7.5
2018-Feb-14 17:00N 37°55' W 008°50'1 0.2
2018-Feb-14 09:28N 37°56' W 008°51'0 0.9
2018-Feb-14 09:00N 37°56' W 008°51'1 2.0
2018-Feb-14 08:30N 37°56' W 008°52'1 1.3
2018-Feb-14 08:00N 37°57' W 008°52'1 2.1
2018-Feb-14 07:29N 37°57' W 008°53'1 2.1
2018-Feb-14 06:59N 37°57' W 008°52'0 0.0
2018-Feb-14 06:29N 37°57' W 008°52'0 0.0
2018-Feb-14 05:59N 37°57' W 008°52'2 3.4
2018-Feb-14 05:30N 37°56' W 008°53'2 0.5
2018-Feb-14 02:23N 37°57' W 008°52'3 8.0
2018-Feb-14 02:01N 37°54' W 008°51'2 1.0
2018-Feb-13 23:32N 37°56' W 008°51'0 0.6
2018-Feb-13 23:30N 37°56' W 008°51'0 0.5
2018-Feb-13 23:00N 37°56' W 008°51'0 0.8
2018-Feb-13 22:30N 37°56' W 008°51'1 0.9
2018-Feb-13 21:55N 37°56' W 008°51'0 0.6
2018-Feb-13 21:30N 37°56' W 008°52'1 0.3
2018-Feb-13 19:45N 37°56' W 008°51'0 0.7
2018-Feb-13 19:28N 37°56' W 008°51'0 1.0
2018-Feb-13 19:00N 37°56' W 008°50'1 1.0
2018-Feb-13 18:28N 37°56' W 008°51'0 0.0
2018-Feb-13 15:43N 37°56' W 008°51'1 4.8
2018-Feb-13 15:30N 37°56' W 008°52'1 2.1
2018-Feb-13 14:59N 37°55' W 008°51'1 0.5
2018-Feb-13 13:13N 37°56' W 008°51'2 8.2
2018-Feb-13 13:00N 37°55' W 008°53'2 1.5
2018-Feb-13 11:40N 37°57' W 008°52'0 1.4
2018-Feb-13 11:30N 37°57' W 008°52'1 1.4
2018-Feb-13 11:00N 37°56' W 008°51'1 1.6
2018-Feb-13 10:30N 37°57' W 008°52'2 3.5
2018-Feb-13 09:58N 37°55' W 008°53'2 3.2
2018-Feb-13 09:28N 37°57' W 008°53'3 6.3
2018-Feb-13 09:00N 37°55' W 008°51'1 2.0
2018-Feb-13 08:30N 37°56' W 008°51'0 0.5
2018-Feb-13 07:29N 37°56' W 008°51'1 1.2
2018-Feb-13 07:01N 37°56' W 008°51'0 0.5
2018-Feb-13 06:30N 37°56' W 008°51'1 1.2
2018-Feb-13 06:00N 37°56' W 008°51'2 2.9
2018-Feb-13 05:29N 37°57' W 008°53'0 0.2
2018-Feb-13 05:00N 37°57' W 008°53'1 2.1
2018-Feb-13 04:29N 37°57' W 008°52'0 0.0
2018-Feb-13 03:59N 37°57' W 008°52'0 0.0
2018-Feb-13 03:29N 37°57' W 008°52'2 3.8
2018-Feb-13 03:00N 37°55' W 008°53'2 1.1
2018-Feb-13 01:20N 37°57' W 008°52'1 3.6
2018-Feb-13 01:00N 37°57' W 008°53'0 0.2
2018-Feb-13 00:30N 37°57' W 008°53'1 0.5
2018-Feb-12 22:11N 37°57' W 008°52'2 9.6
2018-Feb-12 22:00N 37°55' W 008°53'2 0.7
2018-Feb-12 19:31N 37°57' W 008°52'0 0.7
2018-Feb-12 19:30N 37°57' W 008°52'1 1.8
2018-Feb-12 18:58N 37°57' W 008°53'2 3.3
2018-Feb-12 18:28N 37°56' W 008°51'0 0.0
2018-Feb-12 18:00N 37°56' W 008°51'1 2.5
2018-Feb-12 17:30N 37°55' W 008°51'1 0.7
2018-Feb-12 15:45N 37°56' W 008°51'0 1.8
2018-Feb-12 15:30N 37°56' W 008°51'1 1.9
2018-Feb-12 14:59N 37°57' W 008°52'1 1.6
2018-Feb-12 14:30N 37°56' W 008°52'1 0.1
2018-Feb-12 08:04N 37°57' W 008°52'1 9.8
2018-Feb-12 08:00N 37°57' W 008°52'1 1.1
2018-Feb-12 07:30N 37°56' W 008°52'1 2.2
2018-Feb-12 06:58N 37°56' W 008°51'0 0.0
2018-Feb-12 06:28N 37°56' W 008°51'0 0.4
2018-Feb-12 06:00N 37°56' W 008°51'0 0.0
2018-Feb-12 01:13N 37°56' W 008°51'311.8
2018-Feb-12 00:57N 37°53' W 008°51'3 5.7
2018-Feb-12 00:28N 37°56' W 008°51'2 3.6
2018-Feb-11 23:59N 37°56' W 008°53'1 2.9
2018-Feb-11 23:31N 37°57' W 008°53'3 5.5
2018-Feb-11 22:58N 37°55' W 008°51'1 2.3
2018-Feb-11 22:30N 37°56' W 008°51'0 0.1
2018-Feb-11 19:31N 37°56' W 008°51'0 3.9
2018-Feb-11 19:30N 37°56' W 008°51'0 0.9
2018-Feb-11 19:00N 37°56' W 008°51'0 0.1
2018-Feb-11 18:30N 37°56' W 008°51'0 0.3
2018-Feb-11 17:59N 37°56' W 008°51'0 0.1
2018-Feb-11 12:53N 37°56' W 008°51'2 4.6
2018-Feb-11 12:30N 37°56' W 008°53'1 2.5
2018-Feb-11 11:59N 37°57' W 008°52'2 3.1
2018-Feb-11 11:30N 37°56' W 008°53'1 2.5
2018-Feb-11 11:00N 37°57' W 008°53'2 4.0
2018-Feb-11 10:30N 37°55' W 008°52'1 1.1
2018-Feb-11 10:00N 37°55' W 008°51'2 0.9
2018-Feb-11 08:00N 37°57' W 008°52'1 2.0
2018-Feb-11 07:29N 37°57' W 008°53'0 0.1
2018-Feb-11 07:00N 37°57' W 008°53'1 1.9
2018-Feb-11 06:30N 37°56' W 008°53'2 3.8
2018-Feb-11 06:00N 37°55' W 008°51'1 0.2
2018-Feb-11 01:51N 37°56' W 008°51'2 5.9
2018-Feb-11 01:30N 37°57' W 008°53'4 8.0
2018-Feb-11 01:00N 37°54' W 008°51'2 4.8
2018-Feb-11 00:30N 37°56' W 008°52'1 0.2
2018-Feb-10 19:55N 37°57' W 008°52'1 2.9
2018-Feb-10 19:30N 37°57' W 008°53'1 2.8
2018-Feb-10 19:00N 37°56' W 008°51'0 0.1
2018-Feb-10 13:11N 37°56' W 008°51'1 8.2
2018-Feb-10 13:00N 37°55' W 008°52'2 3.2
2018-Feb-10 12:30N 37°57' W 008°53'1 1.3
2018-Feb-10 11:59N 37°57' W 008°52'2 3.8
2018-Feb-10 11:30N 37°56' W 008°53'2 3.2
2018-Feb-10 11:00N 37°56' W 008°51'1 0.1
2018-Feb-10 03:20N 37°56' W 008°51'0 0.9
2018-Feb-10 03:00N 37°56' W 008°51'0 0.1
2018-Feb-09 23:22N 37°56' W 008°51'1 1.8
2018-Feb-09 23:00N 37°56' W 008°50'1 2.5
2018-Feb-09 22:45N 37°56' W 008°51'0 0.1
2018-Feb-09 20:30N 37°56' W 008°51'  
Track history (hours):
 
Tides and Currents Weather Stations Pressure Air Temp Water Temp Dewpoint Dewpoint Depression Visibility Wind Speed Wind Dir Waves Ship Positions

Simenta De Carvalho

Last reported at 2018-Feb-19 19:21 UTC. Time now 2018-Feb-19 22:05 UTC.
Position N 37°57' W 008°52'.

Length 12 m.

Type: Pilot. MMSI: 263673856.

Date/timePositionNaut miles runAvg speedWind from/ knotsBaromVisibWave heightAir tempDewpointWater temp
2018-Feb-19 19:21N 37°57' W 008°52'1 2.8
2018-Feb-19 18:58N 37°56' W 008°51'0 0.1
2018-Feb-19 18:30N 37°56' W 008°51'1 0.1
2018-Feb-19 10:16N 37°57' W 008°52'312.4
2018-Feb-19 10:01N 37°54' W 008°50'4 7.0
2018-Feb-19 09:29N 37°57' W 008°52'1 3.0
2018-Feb-19 09:00N 37°56' W 008°52'1 1.2
2018-Feb-19 08:30N 37°56' W 008°51'1 0.9
2018-Feb-19 07:19N 37°57' W 008°52'413.1
2018-Feb-19 07:00N 37°53' W 008°51'4 1.6
2018-Feb-19 04:24N 37°57' W 008°52'2 4.1
2018-Feb-19 04:00N 37°55' W 008°51'3 5.3
2018-Feb-19 03:30N 37°57' W 008°53'1 0.2
2018-Feb-18 21:25N 37°57' W 008°52'2 4.5
2018-Feb-18 21:00N 37°55' W 008°53'2 3.2
2018-Feb-18 20:30N 37°57' W 008°53'1 0.6
2018-Feb-18 18:30N 37°57' W 008°52'1 2.5
2018-Feb-18 17:59N 37°56' W 008°51'2 4.2
2018-Feb-18 17:30N 37°57' W 008°53'0 0.1
2018-Feb-18 17:00N 37°57' W 008°53'1 1.9
2018-Feb-18 16:29N 37°57' W 008°52'0 0.0
2018-Feb-18 16:00N 37°57' W 008°52'1 2.6
2018-Feb-18 15:30N 37°56' W 008°51'1 0.2
2018-Feb-18 09:26N 37°57' W 008°52'1 2.5
2018-Feb-18 09:00N 37°56' W 008°52'0 0.8
2018-Feb-18 08:30N 37°56' W 008°51'1 1.3
2018-Feb-18 07:42N 37°57' W 008°52'314.1
2018-Feb-18 07:30N 37°54' W 008°51'2 4.1
2018-Feb-18 06:59N 37°54' W 008°53'3 1.1
2018-Feb-18 04:12N 37°57' W 008°52'2 9.6
2018-Feb-18 04:00N 37°55' W 008°53'2 3.5
2018-Feb-18 03:28N 37°57' W 008°52'0 0.0
2018-Feb-18 02:59N 37°57' W 008°52'1 2.8
2018-Feb-18 02:30N 37°56' W 008°51'0 0.4
2018-Feb-18 01:58N 37°56' W 008°51'2 4.9
2018-Feb-18 01:30N 37°57' W 008°53'1 0.6
2018-Feb-17 23:31N 37°57' W 008°52'0 0.0
2018-Feb-17 23:30N 37°57' W 008°52'1 2.1
2018-Feb-17 22:58N 37°56' W 008°53'1 0.3
2018-Feb-17 18:48N 37°57' W 008°52'1 4.2
2018-Feb-17 18:30N 37°57' W 008°53'0 0.5
2018-Feb-17 17:59N 37°57' W 008°53'1 2.1
2018-Feb-17 17:30N 37°57' W 008°52'2 3.3
2018-Feb-17 17:00N 37°56' W 008°53'2 3.3
2018-Feb-17 16:29N 37°57' W 008°52'1 2.8
2018-Feb-17 16:01N 37°56' W 008°51'0 0.9
2018-Feb-17 15:28N 37°56' W 008°51'0 0.0
2018-Feb-17 15:01N 37°56' W 008°51'1 1.7
2018-Feb-17 14:30N 37°55' W 008°51'2 0.2
2018-Feb-17 07:47N 37°57' W 008°52'1 4.4
2018-Feb-17 07:29N 37°57' W 008°53'1 0.2
2018-Feb-17 01:54N 37°57' W 008°52'1 3.2
2018-Feb-17 01:30N 37°56' W 008°51'0 0.6
2018-Feb-17 00:59N 37°56' W 008°51'2 3.4
2018-Feb-17 00:30N 37°57' W 008°53'0 0.5
2018-Feb-17 00:00N 37°57' W 008°53'0 0.9
2018-Feb-16 23:30N 37°57' W 008°53'2 3.8
2018-Feb-16 23:00N 37°56' W 008°50'0 0.5
2018-Feb-16 22:29N 37°56' W 008°51'0 0.1
2018-Feb-16 21:59N 37°56' W 008°51'1 2.6
2018-Feb-16 21:29N 37°57' W 008°52'0 0.0
2018-Feb-16 16:32N 37°57' W 008°52'0 0.0
2018-Feb-16 16:30N 37°57' W 008°52'3 5.3
2018-Feb-16 15:59N 37°54' W 008°51'3 5.7
2018-Feb-16 15:30N 37°57' W 008°52'0 0.0
2018-Feb-16 15:00N 37°57' W 008°52'1 1.0
2018-Feb-16 14:30N 37°56' W 008°52'1 2.9
2018-Feb-16 14:00N 37°55' W 008°52'2 3.8
2018-Feb-16 13:30N 37°57' W 008°52'0 0.0
2018-Feb-16 13:00N 37°57' W 008°52'1 2.3
2018-Feb-16 12:30N 37°56' W 008°51'0 0.6
2018-Feb-16 12:00N 37°56' W 008°51'1 1.5
2018-Feb-16 11:28N 37°57' W 008°52'0 0.0
2018-Feb-16 10:58N 37°57' W 008°52'0 0.0
2018-Feb-15 21:18N 37°57' W 008°52'1 3.0
2018-Feb-15 21:00N 37°57' W 008°53'4 7.1
2018-Feb-15 20:30N 37°54' W 008°51'3 5.0
2018-Feb-15 20:00N 37°56' W 008°51'1 0.2
2018-Feb-15 14:51N 37°57' W 008°52'0 1.4
2018-Feb-15 14:30N 37°57' W 008°52'0 0.2
2018-Feb-15 12:00N 37°57' W 008°52'1 0.2
2018-Feb-15 06:47N 37°56' W 008°51'0 0.7
2018-Feb-15 06:25N 37°56' W 008°51'0 0.6
2018-Feb-15 06:00N 37°56' W 008°51'1 2.7
2018-Feb-15 05:30N 37°55' W 008°50'1 2.3
2018-Feb-15 05:00N 37°56' W 008°51'0 0.5
2018-Feb-15 04:30N 37°56' W 008°51'0 0.0
2018-Feb-15 04:00N 37°56' W 008°51'0 0.0
2018-Feb-15 03:30N 37°56' W 008°51'3 5.3
2018-Feb-15 03:00N 37°53' W 008°51'2 4.5
2018-Feb-15 02:29N 37°56' W 008°51'0 0.1
2018-Feb-15 02:00N 37°56' W 008°51'0 0.1
2018-Feb-15 01:29N 37°56' W 008°51'0 0.7
2018-Feb-15 01:00N 37°56' W 008°51'1 1.5
2018-Feb-15 00:30N 37°55' W 008°51'2 4.7
2018-Feb-15 00:00N 37°57' W 008°53'2 4.3
2018-Feb-14 23:27N 37°56' W 008°51'1 0.2
2018-Feb-14 20:48N 37°56' W 008°51'2 5.7
2018-Feb-14 20:30N 37°55' W 008°52'2 3.9
2018-Feb-14 20:00N 37°57' W 008°52'1 2.5
2018-Feb-14 19:30N 37°57' W 008°53'1 2.2
2018-Feb-14 19:00N 37°56' W 008°52'1 0.6
2018-Feb-14 17:11N 37°56' W 008°51'1 7.5
2018-Feb-14 17:00N 37°55' W 008°50'1 0.2
2018-Feb-14 09:28N 37°56' W 008°51'0 0.9
2018-Feb-14 09:00N 37°56' W 008°51'1 2.0
2018-Feb-14 08:30N 37°56' W 008°52'1 1.3
2018-Feb-14 08:00N 37°57' W 008°52'1 2.1
2018-Feb-14 07:29N 37°57' W 008°53'1 2.1
2018-Feb-14 06:59N 37°57' W 008°52'0 0.0
2018-Feb-14 06:29N 37°57' W 008°52'0 0.0
2018-Feb-14 05:59N 37°57' W 008°52'2 3.4
2018-Feb-14 05:30N 37°56' W 008°53'2 0.5
2018-Feb-14 02:23N 37°57' W 008°52'3 8.0
2018-Feb-14 02:01N 37°54' W 008°51'2 1.0
2018-Feb-13 23:32N 37°56' W 008°51'0 0.6
2018-Feb-13 23:30N 37°56' W 008°51'0 0.5
2018-Feb-13 23:00N 37°56' W 008°51'0 0.8
2018-Feb-13 22:30N 37°56' W 008°51'1 0.9
2018-Feb-13 21:55N 37°56' W 008°51'0 0.6
2018-Feb-13 21:30N 37°56' W 008°52'1 0.3
2018-Feb-13 19:45N 37°56' W 008°51'0 0.7
2018-Feb-13 19:28N 37°56' W 008°51'0 1.0
2018-Feb-13 19:00N 37°56' W 008°50'1 1.0
2018-Feb-13 18:28N 37°56' W 008°51'0 0.0
2018-Feb-13 15:43N 37°56' W 008°51'1 4.8
2018-Feb-13 15:30N 37°56' W 008°52'1 2.1
2018-Feb-13 14:59N 37°55' W 008°51'1 0.5
2018-Feb-13 13:13N 37°56' W 008°51'2 8.2
2018-Feb-13 13:00N 37°55' W 008°53'2 1.5
2018-Feb-13 11:40N 37°57' W 008°52'0 1.4
2018-Feb-13 11:30N 37°57' W 008°52'1 1.4
2018-Feb-13 11:00N 37°56' W 008°51'1 1.6
2018-Feb-13 10:30N 37°57' W 008°52'2 3.5
2018-Feb-13 09:58N 37°55' W 008°53'2 3.2
2018-Feb-13 09:28N 37°57' W 008°53'3 6.3
2018-Feb-13 09:00N 37°55' W 008°51'1 2.0
2018-Feb-13 08:30N 37°56' W 008°51'0 0.5
2018-Feb-13 07:29N 37°56' W 008°51'1 1.2
2018-Feb-13 07:01N 37°56' W 008°51'0 0.5
2018-Feb-13 06:30N 37°56' W 008°51'1 1.2
2018-Feb-13 06:00N 37°56' W 008°51'2 2.9
2018-Feb-13 05:29N 37°57' W 008°53'0 0.2
2018-Feb-13 05:00N 37°57' W 008°53'1 2.1
2018-Feb-13 04:29N 37°57' W 008°52'0 0.0
2018-Feb-13 03:59N 37°57' W 008°52'0 0.0
2018-Feb-13 03:29N 37°57' W 008°52'2 3.8
2018-Feb-13 03:00N 37°55' W 008°53'2 1.1
2018-Feb-13 01:20N 37°57' W 008°52'1 3.6
2018-Feb-13 01:00N 37°57' W 008°53'0 0.2
2018-Feb-13 00:30N 37°57' W 008°53'1 0.5
2018-Feb-12 22:11N 37°57' W 008°52'2 9.6
2018-Feb-12 22:00N 37°55' W 008°53'2 0.7
2018-Feb-12 19:31N 37°57' W 008°52'0 0.7
2018-Feb-12 19:30N 37°57' W 008°52'1 1.8
2018-Feb-12 18:58N 37°57' W 008°53'2 3.3
2018-Feb-12 18:28N 37°56' W 008°51'0 0.0
2018-Feb-12 18:00N 37°56' W 008°51'1 2.5
2018-Feb-12 17:30N 37°55' W 008°51'1 0.7
2018-Feb-12 15:45N 37°56' W 008°51'0 1.8
2018-Feb-12 15:30N 37°56' W 008°51'1 1.9
2018-Feb-12 14:59N 37°57' W 008°52'1 1.6
2018-Feb-12 14:30N 37°56' W 008°52'1 0.1
2018-Feb-12 08:04N 37°57' W 008°52'1 9.8
2018-Feb-12 08:00N 37°57' W 008°52'1 1.1
2018-Feb-12 07:30N 37°56' W 008°52'1 2.2
2018-Feb-12 06:58N 37°56' W 008°51'0 0.0
2018-Feb-12 06:28N 37°56' W 008°51'0 0.4
2018-Feb-12 06:00N 37°56' W 008°51'0 0.0
2018-Feb-12 01:13N 37°56' W 008°51'311.8
2018-Feb-12 00:57N 37°53' W 008°51'3 5.7
2018-Feb-12 00:28N 37°56' W 008°51'2 3.6
2018-Feb-11 23:59N 37°56' W 008°53'1 2.9
2018-Feb-11 23:31N 37°57' W 008°53'3 5.5
2018-Feb-11 22:58N 37°55' W 008°51'1 2.3
2018-Feb-11 22:30N 37°56' W 008°51'0 0.1
2018-Feb-11 19:31N 37°56' W 008°51'0 3.9
2018-Feb-11 19:30N 37°56' W 008°51'0 0.9
2018-Feb-11 19:00N 37°56' W 008°51'0 0.1
2018-Feb-11 18:30N 37°56' W 008°51'0 0.3
2018-Feb-11 17:59N 37°56' W 008°51'0 0.1
2018-Feb-11 12:53N 37°56' W 008°51'2 4.6
2018-Feb-11 12:30N 37°56' W 008°53'1 2.5
2018-Feb-11 11:59N 37°57' W 008°52'2 3.1
2018-Feb-11 11:30N 37°56' W 008°53'1 2.5
2018-Feb-11 11:00N 37°57' W 008°53'2 4.0
2018-Feb-11 10:30N 37°55' W 008°52'1 1.1
2018-Feb-11 10:00N 37°55' W 008°51'2 0.9
2018-Feb-11 08:00N 37°57' W 008°52'1 2.0
2018-Feb-11 07:29N 37°57' W 008°53'0 0.1
2018-Feb-11 07:00N 37°57' W 008°53'1 1.9
2018-Feb-11 06:30N 37°56' W 008°53'2 3.8
2018-Feb-11 06:00N 37°55' W 008°51'1 0.2
2018-Feb-11 01:51N 37°56' W 008°51'2 5.9
2018-Feb-11 01:30N 37°57' W 008°53'4 8.0
2018-Feb-11 01:00N 37°54' W 008°51'2 4.8
2018-Feb-11 00:30N 37°56' W 008°52'1 0.2
2018-Feb-10 19:55N 37°57' W 008°52'1 2.9
2018-Feb-10 19:30N 37°57' W 008°53'1 2.8
2018-Feb-10 19:00N 37°56' W 008°51'0 0.1
2018-Feb-10 13:11N 37°56' W 008°51'1 8.2
2018-Feb-10 13:00N 37°55' W 008°52'2 3.2
2018-Feb-10 12:30N 37°57' W 008°53'1 1.3
2018-Feb-10 11:59N 37°57' W 008°52'2 3.8
2018-Feb-10 11:30N 37°56' W 008°53'2 3.2
2018-Feb-10 11:00N 37°56' W 008°51'1 0.1
2018-Feb-10 03:20N 37°56' W 008°51'0 0.9
2018-Feb-10 03:00N 37°56' W 008°51'0 0.1
2018-Feb-09 23:22N 37°56' W 008°51'1 1.8
2018-Feb-09 23:00N 37°56' W 008°50'1 2.5
2018-Feb-09 22:45N 37°56' W 008°51'0 0.1
2018-Feb-09 20:30N 37°56' W 008°51'  

Dump ship's entire track history